sensor_id;sensor_type;location;lat;lon;timestamp;pressure;altitude;pressure_sealevel;temperature;humidity
7433;BME280;32233;49.500;7.764;2023-12-29T00:01:53;98416.53;;;7.34;100.00
7433;BME280;32233;49.500;7.764;2023-12-29T00:04:20;98407.56;;;7.28;100.00
7433;BME280;32233;49.500;7.764;2023-12-29T00:06:46;98414.09;;;7.32;100.00
7433;BME280;32233;49.500;7.764;2023-12-29T00:09:25;98403.03;;;7.37;100.00
7433;BME280;32233;49.500;7.764;2023-12-29T00:11:51;98406.81;;;7.34;100.00
7433;BME280;32233;49.500;7.764;2023-12-29T00:14:18;98415.81;;;7.25;100.00
7433;BME280;32233;49.500;7.764;2023-12-29T00:16:45;98409.53;;;7.26;100.00
7433;BME280;32233;49.500;7.764;2023-12-29T00:19:12;98415.91;;;7.32;100.00
7433;BME280;32233;49.500;7.764;2023-12-29T00:21:39;98402.56;;;7.33;100.00
7433;BME280;32233;49.500;7.764;2023-12-29T00:24:06;98418.19;;;7.35;100.00
7433;BME280;32233;49.500;7.764;2023-12-29T00:26:32;98417.78;;;7.38;100.00
7433;BME280;32233;49.500;7.764;2023-12-29T00:28:59;98408.94;;;7.39;100.00
7433;BME280;32233;49.500;7.764;2023-12-29T00:31:26;98406.38;;;7.31;100.00
7433;BME280;32233;49.500;7.764;2023-12-29T00:33:53;98410.53;;;7.25;100.00
7433;BME280;32233;49.500;7.764;2023-12-29T00:36:20;98407.09;;;7.25;100.00
7433;BME280;32233;49.500;7.764;2023-12-29T00:38:48;98410.00;;;7.15;100.00
7433;BME280;32233;49.500;7.764;2023-12-29T00:41:15;98406.75;;;7.28;100.00
7433;BME280;32233;49.500;7.764;2023-12-29T00:43:41;98405.38;;;7.32;100.00
7433;BME280;32233;49.500;7.764;2023-12-29T00:46:08;98399.03;;;7.26;100.00
7433;BME280;32233;49.500;7.764;2023-12-29T00:48:35;98399.13;;;7.33;100.00
7433;BME280;32233;49.500;7.764;2023-12-29T00:51:02;98407.19;;;7.31;100.00
7433;BME280;32233;49.500;7.764;2023-12-29T00:53:29;98395.31;;;7.35;100.00
7433;BME280;32233;49.500;7.764;2023-12-29T00:55:59;98393.88;;;7.33;100.00
7433;BME280;32233;49.500;7.764;2023-12-29T00:58:25;98398.03;;;7.27;100.00
7433;BME280;32233;49.500;7.764;2023-12-29T01:00:53;98392.03;;;7.33;100.00
7433;BME280;32233;49.500;7.764;2023-12-29T01:03:20;98402.22;;;7.36;100.00
7433;BME280;32233;49.500;7.764;2023-12-29T01:05:50;98404.56;;;7.31;100.00
7433;BME280;32233;49.500;7.764;2023-12-29T01:08:16;98390.06;;;7.35;100.00
7433;BME280;32233;49.500;7.764;2023-12-29T01:10:43;98389.25;;;7.35;100.00
7433;BME280;32233;49.500;7.764;2023-12-29T01:13:10;98391.03;;;7.34;100.00
7433;BME280;32233;49.500;7.764;2023-12-29T01:15:37;98388.97;;;7.30;100.00
7433;BME280;32233;49.500;7.764;2023-12-29T01:18:04;98385.88;;;7.26;100.00
7433;BME280;32233;49.500;7.764;2023-12-29T01:20:31;98376.00;;;7.28;100.00
7433;BME280;32233;49.500;7.764;2023-12-29T01:22:58;98371.19;;;7.32;100.00
7433;BME280;32233;49.500;7.764;2023-12-29T01:25:24;98371.91;;;7.26;100.00
7433;BME280;32233;49.500;7.764;2023-12-29T01:27:51;98371.84;;;7.19;100.00
7433;BME280;32233;49.500;7.764;2023-12-29T01:30:17;98359.50;;;7.19;100.00
7433;BME280;32233;49.500;7.764;2023-12-29T01:32:44;98358.16;;;7.24;100.00
7433;BME280;32233;49.500;7.764;2023-12-29T01:35:11;98366.66;;;7.26;100.00
7433;BME280;32233;49.500;7.764;2023-12-29T01:37:37;98349.44;;;7.23;100.00
7433;BME280;32233;49.500;7.764;2023-12-29T01:40:04;98348.00;;;7.20;100.00
7433;BME280;32233;49.500;7.764;2023-12-29T01:42:31;98357.16;;;7.25;100.00
7433;BME280;32233;49.500;7.764;2023-12-29T01:44:58;98348.72;;;7.29;100.00
7433;BME280;32233;49.500;7.764;2023-12-29T01:47:24;98348.09;;;7.27;100.00
7433;BME280;32233;49.500;7.764;2023-12-29T01:49:51;98351.19;;;7.31;100.00
7433;BME280;32233;49.500;7.764;2023-12-29T01:52:19;98356.53;;;7.23;100.00
7433;BME280;32233;49.500;7.764;2023-12-29T01:54:49;98352.09;;;7.23;100.00
7433;BME280;32233;49.500;7.764;2023-12-29T01:57:17;98364.03;;;7.26;100.00
7433;BME280;32233;49.500;7.764;2023-12-29T01:59:43;98366.03;;;7.24;100.00
7433;BME280;32233;49.500;7.764;2023-12-29T02:02:12;98364.41;;;7.23;100.00
7433;BME280;32233;49.500;7.764;2023-12-29T02:04:40;98362.84;;;7.28;100.00
7433;BME280;32233;49.500;7.764;2023-12-29T02:07:08;98357.34;;;7.23;100.00
7433;BME280;32233;49.500;7.764;2023-12-29T02:09:35;98362.94;;;7.20;100.00
7433;BME280;32233;49.500;7.764;2023-12-29T02:12:03;98354.97;;;7.28;100.00
7433;BME280;32233;49.500;7.764;2023-12-29T02:14:29;98355.22;;;7.33;100.00
7433;BME280;32233;49.500;7.764;2023-12-29T02:19:43;98357.97;;;7.25;100.00
7433;BME280;32233;49.500;7.764;2023-12-29T02:22:12;98353.59;;;7.17;100.00
7433;BME280;32233;49.500;7.764;2023-12-29T02:24:39;98352.69;;;7.25;100.00
7433;BME280;32233;49.500;7.764;2023-12-29T02:30:18;98350.88;;;7.26;100.00
7433;BME280;32233;49.500;7.764;2023-12-29T02:32:46;98357.88;;;7.33;100.00
7433;BME280;32233;49.500;7.764;2023-12-29T02:35:24;98354.06;;;7.21;100.00
7433;BME280;32233;49.500;7.764;2023-12-29T02:37:53;98355.97;;;7.27;100.00
7433;BME280;32233;49.500;7.764;2023-12-29T02:40:21;98353.34;;;7.27;100.00
7433;BME280;32233;49.500;7.764;2023-12-29T02:42:48;98352.00;;;7.31;100.00
7433;BME280;32233;49.500;7.764;2023-12-29T02:45:16;98350.63;;;7.35;100.00
7433;BME280;32233;49.500;7.764;2023-12-29T02:47:43;98352.59;;;7.33;100.00
7433;BME280;32233;49.500;7.764;2023-12-29T02:50:10;98342.72;;;7.35;100.00
7433;BME280;32233;49.500;7.764;2023-12-29T02:52:37;98345.81;;;7.39;100.00
7433;BME280;32233;49.500;7.764;2023-12-29T02:55:04;98355.94;;;7.42;100.00
7433;BME280;32233;49.500;7.764;2023-12-29T02:57:31;98343.00;;;7.40;100.00
7433;BME280;32233;49.500;7.764;2023-12-29T02:59:57;98342.78;;;7.42;100.00
7433;BME280;32233;49.500;7.764;2023-12-29T03:02:24;98344.97;;;7.38;100.00
7433;BME280;32233;49.500;7.764;2023-12-29T03:04:51;98338.09;;;7.37;100.00
7433;BME280;32233;49.500;7.764;2023-12-29T03:07:17;98344.72;;;7.33;100.00
7433;BME280;32233;49.500;7.764;2023-12-29T03:09:44;98339.00;;;7.30;100.00
7433;BME280;32233;49.500;7.764;2023-12-29T03:12:11;98344.97;;;7.38;100.00
7433;BME280;32233;49.500;7.764;2023-12-29T03:14:38;98347.09;;;7.43;100.00
7433;BME280;32233;49.500;7.764;2023-12-29T03:17:04;98353.06;;;7.37;100.00
7433;BME280;32233;49.500;7.764;2023-12-29T03:19:31;98340.91;;;7.36;100.00
7433;BME280;32233;49.500;7.764;2023-12-29T03:21:59;98350.44;;;7.37;100.00
7433;BME280;32233;49.500;7.764;2023-12-29T03:24:26;98335.47;;;7.37;100.00
7433;BME280;32233;49.500;7.764;2023-12-29T03:26:53;98335.09;;;7.40;100.00
7433;BME280;32233;49.500;7.764;2023-12-29T03:29:19;98333.03;;;7.36;100.00
7433;BME280;32233;49.500;7.764;2023-12-29T03:31:46;98325.13;;;7.36;100.00
7433;BME280;32233;49.500;7.764;2023-12-29T03:34:13;98333.84;;;7.36;100.00
7433;BME280;32233;49.500;7.764;2023-12-29T03:36:40;98334.09;;;7.41;100.00
7433;BME280;32233;49.500;7.764;2023-12-29T03:39:06;98326.41;;;7.40;100.00
7433;BME280;32233;49.500;7.764;2023-12-29T03:41:33;98328.38;;;7.38;100.00
7433;BME280;32233;49.500;7.764;2023-12-29T03:44:00;98323.88;;;7.32;100.00
7433;BME280;32233;49.500;7.764;2023-12-29T03:46:26;98326.16;;;7.20;100.00
7433;BME280;32233;49.500;7.764;2023-12-29T03:48:53;98328.88;;;7.12;100.00
7433;BME280;32233;49.500;7.764;2023-12-29T03:51:20;98322.25;;;7.16;100.00
7433;BME280;32233;49.500;7.764;2023-12-29T03:53:46;98325.25;;;7.28;100.00
7433;BME280;32233;49.500;7.764;2023-12-29T03:56:15;98322.41;;;7.29;100.00
7433;BME280;32233;49.500;7.764;2023-12-29T03:58:45;98323.88;;;7.32;100.00
7433;BME280;32233;49.500;7.764;2023-12-29T04:01:14;98317.50;;;7.26;100.00
7433;BME280;32233;49.500;7.764;2023-12-29T04:03:42;98313.09;;;7.27;100.00
7433;BME280;32233;49.500;7.764;2023-12-29T04:06:09;98309.09;;;7.16;100.00
7433;BME280;32233;49.500;7.764;2023-12-29T04:08:37;98304.56;;;7.25;100.00
7433;BME280;32233;49.500;7.764;2023-12-29T04:11:04;98297.50;;;7.25;100.00
7433;BME280;32233;49.500;7.764;2023-12-29T04:13:31;98295.88;;;7.24;100.00
7433;BME280;32233;49.500;7.764;2023-12-29T04:15:58;98296.06;;;7.23;100.00
7433;BME280;32233;49.500;7.764;2023-12-29T04:18:25;98298.25;;;7.19;100.00
7433;BME280;32233;49.500;7.764;2023-12-29T04:20:52;98300.75;;;7.27;100.00
7433;BME280;32233;49.500;7.764;2023-12-29T04:23:18;98296.38;;;7.34;100.00
7433;BME280;32233;49.500;7.764;2023-12-29T04:25:45;98297.38;;;7.33;100.00
7433;BME280;32233;49.500;7.764;2023-12-29T04:28:13;98302.03;;;7.31;100.00
7433;BME280;32233;49.500;7.764;2023-12-29T04:30:39;98297.03;;;7.36;100.00
7433;BME280;32233;49.500;7.764;2023-12-29T04:33:06;98304.72;;;7.38;100.00
7433;BME280;32233;49.500;7.764;2023-12-29T04:35:33;98299.19;;;7.33;100.00
7433;BME280;32233;49.500;7.764;2023-12-29T04:37:59;98297.59;;;7.32;100.00
7433;BME280;32233;49.500;7.764;2023-12-29T04:40:27;98298.59;;;7.31;100.00
7433;BME280;32233;49.500;7.764;2023-12-29T04:42:53;98305.47;;;7.32;100.00
7433;BME280;32233;49.500;7.764;2023-12-29T04:45:20;98305.16;;;7.41;100.00
7433;BME280;32233;49.500;7.764;2023-12-29T04:47:47;98311.19;;;7.35;100.00
7433;BME280;32233;49.500;7.764;2023-12-29T04:50:13;98298.75;;;7.44;100.00
7433;BME280;32233;49.500;7.764;2023-12-29T04:52:40;98303.75;;;7.39;100.00
7433;BME280;32233;49.500;7.764;2023-12-29T04:55:07;98301.53;;;7.42;100.00
7433;BME280;32233;49.500;7.764;2023-12-29T04:57:34;98296.47;;;7.41;100.00
7433;BME280;32233;49.500;7.764;2023-12-29T05:00:00;98293.63;;;7.42;100.00
7433;BME280;32233;49.500;7.764;2023-12-29T05:02:27;98291.91;;;7.50;100.00
7433;BME280;32233;49.500;7.764;2023-12-29T05:04:54;98288.09;;;7.52;100.00
7433;BME280;32233;49.500;7.764;2023-12-29T05:07:21;98273.75;;;7.55;100.00
7433;BME280;32233;49.500;7.764;2023-12-29T05:09:47;98291.78;;;7.58;100.00
7433;BME280;32233;49.500;7.764;2023-12-29T05:12:14;98293.38;;;7.52;100.00
7433;BME280;32233;49.500;7.764;2023-12-29T05:14:41;98292.72;;;7.50;100.00
7433;BME280;32233;49.500;7.764;2023-12-29T05:17:07;98292.16;;;7.55;100.00
7433;BME280;32233;49.500;7.764;2023-12-29T05:19:35;98291.19;;;7.56;100.00
7433;BME280;32233;49.500;7.764;2023-12-29T05:22:02;98302.44;;;7.50;100.00
7433;BME280;32233;49.500;7.764;2023-12-29T05:24:28;98291.53;;;7.53;100.00
7433;BME280;32233;49.500;7.764;2023-12-29T05:26:55;98298.06;;;7.57;100.00
7433;BME280;32233;49.500;7.764;2023-12-29T05:29:21;98284.91;;;7.57;100.00
7433;BME280;32233;49.500;7.764;2023-12-29T05:31:48;98288.09;;;7.52;100.00
7433;BME280;32233;49.500;7.764;2023-12-29T05:34:15;98281.84;;;7.53;100.00
7433;BME280;32233;49.500;7.764;2023-12-29T05:36:41;98289.53;;;7.55;100.00
7433;BME280;32233;49.500;7.764;2023-12-29T05:39:08;98284.28;;;7.55;100.00
7433;BME280;32233;49.500;7.764;2023-12-29T05:41:35;98289.53;;;7.55;100.00
7433;BME280;32233;49.500;7.764;2023-12-29T05:44:01;98288.91;;;7.53;100.00
7433;BME280;32233;49.500;7.764;2023-12-29T05:46:28;98294.78;;;7.55;100.00
7433;BME280;32233;49.500;7.764;2023-12-29T05:48:55;98297.38;;;7.48;100.00
7433;BME280;32233;49.500;7.764;2023-12-29T05:51:21;98293.81;;;7.56;100.00
7433;BME280;32233;49.500;7.764;2023-12-29T05:53:48;98296.63;;;7.54;100.00
7433;BME280;32233;49.500;7.764;2023-12-29T05:56:15;98298.78;;;7.51;100.00
7433;BME280;32233;49.500;7.764;2023-12-29T05:58:42;98304.91;;;7.51;100.00
7433;BME280;32233;49.500;7.764;2023-12-29T06:01:11;98300.34;;;7.60;100.00
7433;BME280;32233;49.500;7.764;2023-12-29T06:03:38;98289.94;;;7.52;100.00
7433;BME280;32233;49.500;7.764;2023-12-29T06:06:05;98292.81;;;7.57;100.00
7433;BME280;32233;49.500;7.764;2023-12-29T06:08:31;98287.09;;;7.53;100.00
7433;BME280;32233;49.500;7.764;2023-12-29T06:10:58;98294.78;;;7.55;100.00
7433;BME280;32233;49.500;7.764;2023-12-29T06:13:24;98299.88;;;7.56;100.00
7433;BME280;32233;49.500;7.764;2023-12-29T06:15:51;98288.56;;;7.56;100.00
7433;BME280;32233;49.500;7.764;2023-12-29T06:18:17;98301.25;;;7.52;100.00
7433;BME280;32233;49.500;7.764;2023-12-29T06:20:44;98294.53;;;7.50;100.00
7433;BME280;32233;49.500;7.764;2023-12-29T06:23:11;98299.25;;;7.54;100.00
7433;BME280;32233;49.500;7.764;2023-12-29T06:25:37;98298.44;;;7.54;100.00
7433;BME280;32233;49.500;7.764;2023-12-29T06:28:06;98299.25;;;7.54;100.00
7433;BME280;32233;49.500;7.764;2023-12-29T06:30:33;98293.38;;;7.52;100.00
7433;BME280;32233;49.500;7.764;2023-12-29T06:33:00;98289.28;;;7.50;100.00
7433;BME280;32233;49.500;7.764;2023-12-29T06:35:27;98296.25;;;7.57;100.00
7433;BME280;32233;49.500;7.764;2023-12-29T06:37:54;98299.06;;;7.56;100.00
7433;BME280;32233;49.500;7.764;2023-12-29T06:40:20;98297.41;;;7.55;100.00
7433;BME280;32233;49.500;7.764;2023-12-29T06:42:47;98290.75;;;7.52;100.00
7433;BME280;32233;49.500;7.764;2023-12-29T06:45:14;98288.91;;;7.53;100.00
7433;BME280;32233;49.500;7.764;2023-12-29T06:47:40;98292.81;;;7.57;100.00
7433;BME280;32233;49.500;7.764;2023-12-29T06:50:07;98291.34;;;7.54;100.00
7433;BME280;32233;49.500;7.764;2023-12-29T06:52:39;98293.38;;;7.52;100.00
7433;BME280;32233;49.500;7.764;2023-12-29T06:55:06;98283.09;;;7.57;100.00
7433;BME280;32233;49.500;7.764;2023-12-29T06:57:33;98286.09;;;7.54;100.00
7433;BME280;32233;49.500;7.764;2023-12-29T07:00:00;98294.63;;;7.56;100.00
7433;BME280;32233;49.500;7.764;2023-12-29T07:02:26;98293.00;;;7.55;100.00
7433;BME280;32233;49.500;7.764;2023-12-29T07:04:53;98278.59;;;7.51;100.00
7433;BME280;32233;49.500;7.764;2023-12-29T07:07:19;98285.84;;;7.49;100.00
7433;BME280;32233;49.500;7.764;2023-12-29T07:09:46;98279.31;;;7.45;100.00
7433;BME280;32233;49.500;7.764;2023-12-29T07:12:14;98289.28;;;7.50;100.00
7433;BME280;32233;49.500;7.764;2023-12-29T07:14:42;98284.84;;;7.50;100.00
7433;BME280;32233;49.500;7.764;2023-12-29T07:17:08;98281.50;;;7.41;100.00
7433;BME280;32233;49.500;7.764;2023-12-29T07:19:35;98287.00;;;7.47;100.00
7433;BME280;32233;49.500;7.764;2023-12-29T07:22:04;98285.84;;;7.49;100.00
7433;BME280;32233;49.500;7.764;2023-12-29T07:24:32;98287.84;;;7.47;100.00
7433;BME280;32233;49.500;7.764;2023-12-29T07:26:59;98283.97;;;7.43;100.00
7433;BME280;32233;49.500;7.764;2023-12-29T07:29:26;98294.09;;;7.46;100.00
7433;BME280;32233;49.500;7.764;2023-12-29T07:31:53;98297.97;;;7.50;100.00
7433;BME280;32233;49.500;7.764;2023-12-29T07:34:20;98295.00;;;7.53;100.00
7433;BME280;32233;49.500;7.764;2023-12-29T07:36:47;98285.38;;;7.45;100.00
7433;BME280;32233;49.500;7.764;2023-12-29T07:39:13;98296.00;;;7.52;100.00
7433;BME280;32233;49.500;7.764;2023-12-29T07:41:40;98288.44;;;8.07;100.00
7433;BME280;32233;49.500;7.764;2023-12-29T07:44:10;98292.44;;;7.60;100.00
7433;BME280;32233;49.500;7.764;2023-12-29T07:46:38;98285.94;;;7.56;100.00
7433;BME280;32233;49.500;7.764;2023-12-29T07:49:05;98292.00;;;7.56;100.00
7433;BME280;32233;49.500;7.764;2023-12-29T07:51:32;98294.19;;;7.53;100.00
7433;BME280;32233;49.500;7.764;2023-12-29T07:53:59;98300.06;;;7.55;100.00
7433;BME280;32233;49.500;7.764;2023-12-29T07:56:26;98295.63;;;7.55;100.00
7433;BME280;32233;49.500;7.764;2023-12-29T07:58:52;98296.16;;;7.51;100.00
7433;BME280;32233;49.500;7.764;2023-12-29T08:01:19;98305.31;;;7.55;100.00
7433;BME280;32233;49.500;7.764;2023-12-29T08:03:45;98298.88;;;7.57;100.00
7433;BME280;32233;49.500;7.764;2023-12-29T08:06:12;98302.97;;;7.60;100.00
7433;BME280;32233;49.500;7.764;2023-12-29T08:08:39;98294.44;;;7.58;100.00
7433;BME280;32233;49.500;7.764;2023-12-29T08:11:13;98309.84;;;7.61;100.00
7433;BME280;32233;49.500;7.764;2023-12-29T08:13:40;98301.84;;;7.69;100.00
7433;BME280;32233;49.500;7.764;2023-12-29T08:16:06;98309.09;;;7.67;100.00
7433;BME280;32233;49.500;7.764;2023-12-29T08:18:34;98302.03;;;7.67;100.00
7433;BME280;32233;49.500;7.764;2023-12-29T08:21:02;98306.47;;;7.67;100.00
7433;BME280;32233;49.500;7.764;2023-12-29T08:23:28;98311.00;;;7.73;100.00
7433;BME280;32233;49.500;7.764;2023-12-29T08:25:58;98287.13;;;7.75;100.00
7433;BME280;32233;49.500;7.764;2023-12-29T08:28:25;98304.81;;;7.81;100.00
7433;BME280;32233;49.500;7.764;2023-12-29T08:30:51;98299.91;;;7.78;100.00
7433;BME280;32233;49.500;7.764;2023-12-29T08:33:19;98309.25;;;7.80;100.00
7433;BME280;32233;49.500;7.764;2023-12-29T08:35:45;98305.16;;;7.78;100.00
7433;BME280;32233;49.500;7.764;2023-12-29T08:38:12;98310.22;;;7.79;100.00
7433;BME280;32233;49.500;7.764;2023-12-29T08:40:40;98311.44;;;7.77;100.00
7433;BME280;32233;49.500;7.764;2023-12-29T08:43:07;98307.69;;;7.86;100.00
7433;BME280;32233;49.500;7.764;2023-12-29T08:45:34;98308.31;;;7.88;100.00
7433;BME280;32233;49.500;7.764;2023-12-29T08:48:02;98301.41;;;7.87;100.00
7433;BME280;32233;49.500;7.764;2023-12-29T08:50:30;98294.97;;;7.89;100.00
7433;BME280;32233;49.500;7.764;2023-12-29T08:52:56;98310.56;;;7.91;100.00
7433;BME280;32233;49.500;7.764;2023-12-29T08:55:23;98304.94;;;7.94;100.00
7433;BME280;32233;49.500;7.764;2023-12-29T08:57:49;98308.56;;;7.93;100.00
7433;BME280;32233;49.500;7.764;2023-12-29T09:00:16;98302.66;;;7.91;100.00
7433;BME280;32233;49.500;7.764;2023-12-29T09:02:43;98303.56;;;7.98;100.00
7433;BME280;32233;49.500;7.764;2023-12-29T09:05:11;98310.19;;;7.94;100.00
7433;BME280;32233;49.500;7.764;2023-12-29T09:07:38;98292.41;;;7.96;100.00
7433;BME280;32233;49.500;7.764;2023-12-29T09:10:05;98301.28;;;7.95;100.00
7433;BME280;32233;49.500;7.764;2023-12-29T09:12:35;98308.38;;;7.94;100.00
7433;BME280;32233;49.500;7.764;2023-12-29T09:15:02;98299.47;;;7.95;100.00
7433;BME280;32233;49.500;7.764;2023-12-29T09:17:29;98298.66;;;7.95;100.00
7433;BME280;32233;49.500;7.764;2023-12-29T09:19:56;98305.75;;;7.94;100.00
7433;BME280;32233;49.500;7.764;2023-12-29T09:22:35;98309.38;;;7.93;100.00
7433;BME280;32233;49.500;7.764;2023-12-29T09:25:02;98309.81;;;7.97;100.00
7433;BME280;32233;49.500;7.764;2023-12-29T09:27:29;98303.19;;;8.01;100.00
7433;BME280;32233;49.500;7.764;2023-12-29T09:29:55;98299.91;;;7.99;100.00
7433;BME280;32233;49.500;7.764;2023-12-29T09:32:22;98313.72;;;8.01;100.00
7433;BME280;32233;49.500;7.764;2023-12-29T09:34:48;98312.13;;;8.07;100.00
7433;BME280;32233;49.500;7.764;2023-12-29T09:37:15;98295.53;;;8.06;100.00
7433;BME280;32233;49.500;7.764;2023-12-29T09:39:42;98310.16;;;8.09;100.00
7433;BME280;32233;49.500;7.764;2023-12-29T09:42:16;98312.34;;;8.05;100.00
7433;BME280;32233;49.500;7.764;2023-12-29T09:44:44;98315.97;;;8.04;100.00
7433;BME280;32233;49.500;7.764;2023-12-29T09:47:14;98314.59;;;8.08;100.00
7433;BME280;32233;49.500;7.764;2023-12-29T09:49:45;98324.56;;;8.13;100.00
7433;BME280;32233;49.500;7.764;2023-12-29T09:52:13;98315.66;;;8.14;100.00
7433;BME280;32233;49.500;7.764;2023-12-29T09:54:41;98312.38;;;8.12;100.00
7433;BME280;32233;49.500;7.764;2023-12-29T09:57:08;98310.59;;;8.12;100.00
7433;BME280;32233;49.500;7.764;2023-12-29T09:59:35;98316.66;;;8.13;100.00
7433;BME280;32233;49.500;7.764;2023-12-29T10:02:05;98305.50;;;8.11;100.00
7433;BME280;32233;49.500;7.764;2023-12-29T10:04:31;98316.84;;;8.11;100.00
7433;BME280;32233;49.500;7.764;2023-12-29T10:07:02;98326.19;;;8.14;100.00
7433;BME280;32233;49.500;7.764;2023-12-29T10:09:32;98323.75;;;8.12;100.00
7433;BME280;32233;49.500;7.764;2023-12-29T10:12:02;98327.38;;;8.11;100.00
7433;BME280;32233;49.500;7.764;2023-12-29T10:17:52;98314.63;;;8.15;100.00
7433;BME280;32233;49.500;7.764;2023-12-29T10:20:44;98308.38;;;8.16;100.00
7433;BME280;32233;49.500;7.764;2023-12-29T10:26:01;98317.59;;;8.27;100.00
7433;BME280;32233;49.500;7.764;2023-12-29T10:28:28;98321.03;;;8.27;100.00
7433;BME280;32233;49.500;7.764;2023-12-29T10:30:55;98316.56;;;8.28;100.00
7433;BME280;32233;49.500;7.764;2023-12-29T10:33:21;98317.81;;;8.32;100.00
7433;BME280;32233;49.500;7.764;2023-12-29T10:35:59;98316.91;;;8.39;100.00
7433;BME280;32233;49.500;7.764;2023-12-29T10:38:30;98316.28;;;8.37;100.00
7433;BME280;32233;49.500;7.764;2023-12-29T10:41:17;98326.03;;;8.37;100.00
7433;BME280;32233;49.500;7.764;2023-12-29T10:43:45;98311.13;;;8.51;100.00
7433;BME280;32233;49.500;7.764;2023-12-29T10:46:18;98306.56;;;8.38;100.00
7433;BME280;32233;49.500;7.764;2023-12-29T10:48:46;98306.38;;;8.39;100.00
7433;BME280;32233;49.500;7.764;2023-12-29T10:51:12;98316.72;;;8.41;100.00
7433;BME280;32233;49.500;7.764;2023-12-29T10:53:39;98318.97;;;8.44;100.00
7433;BME280;32233;49.500;7.764;2023-12-29T10:56:19;98308.06;;;8.47;100.00
7433;BME280;32233;49.500;7.764;2023-12-29T10:58:57;98297.31;;;8.49;100.00
7433;BME280;32233;49.500;7.764;2023-12-29T11:01:25;98294.06;;;8.47;100.00
7433;BME280;32233;49.500;7.764;2023-12-29T11:06:27;98285.97;;;8.48;100.00
7433;BME280;32233;49.500;7.764;2023-12-29T11:08:55;98301.16;;;8.46;100.00
7433;BME280;32233;49.500;7.764;2023-12-29T11:11:23;98292.25;;;8.47;100.00
7433;BME280;32233;49.500;7.764;2023-12-29T11:13:49;98297.72;;;8.46;100.00
7433;BME280;32233;49.500;7.764;2023-12-29T11:16:16;98289.19;;;8.43;100.00
7433;BME280;32233;49.500;7.764;2023-12-29T11:18:44;98280.22;;;8.38;100.00
7433;BME280;32233;49.500;7.764;2023-12-29T11:21:11;98283.09;;;8.43;100.00
7433;BME280;32233;49.500;7.764;2023-12-29T11:23:38;98282.28;;;8.42;100.00
7433;BME280;32233;49.500;7.764;2023-12-29T11:26:05;98289.00;;;8.45;100.00
7433;BME280;32233;49.500;7.764;2023-12-29T11:28:33;98294.44;;;8.43;100.00
7433;BME280;32233;49.500;7.764;2023-12-29T11:31:00;98295.69;;;8.48;100.00
7433;BME280;32233;49.500;7.764;2023-12-29T11:33:35;98296.94;;;8.52;100.00
7433;BME280;32233;49.500;7.764;2023-12-29T11:36:13;98295.75;;;8.54;100.00
7433;BME280;32233;49.500;7.764;2023-12-29T11:39:17;98288.88;;;8.53;100.00
7433;BME280;32233;49.500;7.764;2023-12-29T11:42:06;98294.13;;;8.53;100.00
7433;BME280;32233;49.500;7.764;2023-12-29T11:44:33;98291.09;;;8.56;100.00
7433;BME280;32233;49.500;7.764;2023-12-29T11:47:00;98284.25;;;8.62;100.00
7433;BME280;32233;49.500;7.764;2023-12-29T11:49:58;98292.59;;;8.65;100.00
7433;BME280;32233;49.500;7.764;2023-12-29T11:52:37;98281.34;;;8.50;100.00
7433;BME280;32233;49.500;7.764;2023-12-29T11:57:35;98276.94;;;8.57;100.00
7433;BME280;32233;49.500;7.764;2023-12-29T12:00:08;98266.63;;;8.62;100.00
7433;BME280;32233;49.500;7.764;2023-12-29T12:02:38;98271.16;;;8.75;100.00
7433;BME280;32233;49.500;7.764;2023-12-29T12:05:05;98264.66;;;8.71;100.00
7433;BME280;32233;49.500;7.764;2023-12-29T12:12:58;98260.03;;;8.45;100.00
7433;BME280;32233;49.500;7.764;2023-12-29T12:17:53;98269.81;;;8.30;100.00
7433;BME280;32233;49.500;7.764;2023-12-29T12:20:20;98265.50;;;8.22;100.00
7433;BME280;32233;49.500;7.764;2023-12-29T12:22:50;98253.78;;;8.03;100.00
7433;BME280;32233;49.500;7.764;2023-12-29T12:25:25;98256.22;;;7.83;100.00
7433;BME280;32233;49.500;7.764;2023-12-29T12:27:54;98251.41;;;7.65;100.00
7433;BME280;32233;49.500;7.764;2023-12-29T12:30:22;98250.91;;;7.55;100.00
7433;BME280;32233;49.500;7.764;2023-12-29T12:33:02;98246.47;;;7.56;100.00
7433;BME280;32233;49.500;7.764;2023-12-29T12:35:30;98236.94;;;7.55;100.00
7433;BME280;32233;49.500;7.764;2023-12-29T12:38:16;98239.13;;;7.51;100.00
7433;BME280;32233;49.500;7.764;2023-12-29T12:40:48;98226.53;;;7.47;100.00
7433;BME280;32233;49.500;7.764;2023-12-29T12:43:14;98217.22;;;7.44;100.00
7433;BME280;32233;49.500;7.764;2023-12-29T12:46:03;98226.53;;;7.47;100.00
7433;BME280;32233;49.500;7.764;2023-12-29T12:48:43;98222.72;;;7.49;100.00
7433;BME280;32233;49.500;7.764;2023-12-29T12:51:12;98222.09;;;7.47;100.00
7433;BME280;32233;49.500;7.764;2023-12-29T12:53:43;98217.81;;;7.46;100.00
7433;BME280;32233;49.500;7.764;2023-12-29T12:56:14;98211.75;;;7.45;100.00
7433;BME280;32233;49.500;7.764;2023-12-29T12:58:41;98214.38;;;7.45;100.00
7433;BME280;32233;49.500;7.764;2023-12-29T13:01:07;98211.94;;;7.44;100.00
7433;BME280;32233;49.500;7.764;2023-12-29T13:03:37;98207.75;;;7.50;100.00
7433;BME280;32233;49.500;7.764;2023-12-29T13:06:05;98205.13;;;7.50;100.00
7433;BME280;32233;49.500;7.764;2023-12-29T13:08:32;98203.75;;;7.54;100.00
7433;BME280;32233;49.500;7.764;2023-12-29T13:11:08;98203.63;;;7.62;100.00
7433;BME280;32233;49.500;7.764;2023-12-29T13:13:39;98192.09;;;7.63;100.00
7433;BME280;32233;49.500;7.764;2023-12-29T13:16:06;98189.72;;;7.68;100.00
7433;BME280;32233;49.500;7.764;2023-12-29T13:18:33;98188.91;;;7.67;100.00
7433;BME280;32233;49.500;7.764;2023-12-29T13:21:02;98196.38;;;7.64;100.00
7433;BME280;32233;49.500;7.764;2023-12-29T13:23:28;98192.78;;;7.72;100.00
7433;BME280;32233;49.500;7.764;2023-12-29T13:25:57;98192.28;;;7.61;100.00
7433;BME280;32233;49.500;7.764;2023-12-29T13:28:26;98194.72;;;7.63;100.00
7433;BME280;32233;49.500;7.764;2023-12-29T13:30:53;98199.38;;;7.61;100.00
7433;BME280;32233;49.500;7.764;2023-12-29T13:36:08;98194.53;;;7.64;100.00
7433;BME280;32233;49.500;7.764;2023-12-29T13:38:41;98194.72;;;7.63;100.00
7433;BME280;32233;49.500;7.764;2023-12-29T13:41:14;98199.31;;;7.76;100.00
7433;BME280;32233;49.500;7.764;2023-12-29T13:43:43;98194.41;;;7.73;100.00